sensor_id;sensor_type;location;lat;lon;timestamp;temperature;humidity
18426;DHT22;9340;48.756;9.226;2023-01-05T00:02:20;10.90;99.90
18426;DHT22;9340;48.756;9.226;2023-01-05T00:04:47;10.80;99.90
18426;DHT22;9340;48.756;9.226;2023-01-05T00:07:13;10.70;99.90
18426;DHT22;9340;48.756;9.226;2023-01-05T00:09:40;10.80;99.90
18426;DHT22;9340;48.756;9.226;2023-01-05T00:12:09;10.70;99.90
18426;DHT22;9340;48.756;9.226;2023-01-05T00:14:53;10.70;99.90
18426;DHT22;9340;48.756;9.226;2023-01-05T00:17:47;10.80;99.90
18426;DHT22;9340;48.756;9.226;2023-01-05T00:20:32;10.80;99.90
18426;DHT22;9340;48.756;9.226;2023-01-05T00:23:16;10.90;99.90
18426;DHT22;9340;48.756;9.226;2023-01-05T00:25:44;10.80;99.90
18426;DHT22;9340;48.756;9.226;2023-01-05T00:28:11;10.80;99.90
18426;DHT22;9340;48.756;9.226;2023-01-05T00:30:40;10.80;99.90
18426;DHT22;9340;48.756;9.226;2023-01-05T00:33:09;10.90;99.90
18426;DHT22;9340;48.756;9.226;2023-01-05T00:35:36;10.80;99.90
18426;DHT22;9340;48.756;9.226;2023-01-05T00:38:03;10.80;99.90
18426;DHT22;9340;48.756;9.226;2023-01-05T00:40:31;10.90;99.90
18426;DHT22;9340;48.756;9.226;2023-01-05T00:42:58;11.00;99.90
18426;DHT22;9340;48.756;9.226;2023-01-05T00:45:25;11.00;99.90
18426;DHT22;9340;48.756;9.226;2023-01-05T00:47:52;11.10;99.90
18426;DHT22;9340;48.756;9.226;2023-01-05T00:50:22;11.20;99.90
18426;DHT22;9340;48.756;9.226;2023-01-05T00:52:49;11.20;99.90
18426;DHT22;9340;48.756;9.226;2023-01-05T00:55:16;11.20;99.90
18426;DHT22;9340;48.756;9.226;2023-01-05T00:57:43;11.20;99.90
18426;DHT22;9340;48.756;9.226;2023-01-05T01:00:13;11.30;99.90
18426;DHT22;9340;48.756;9.226;2023-01-05T01:02:41;11.20;99.90
18426;DHT22;9340;48.756;9.226;2023-01-05T01:05:08;11.30;99.90
18426;DHT22;9340;48.756;9.226;2023-01-05T01:07:36;11.30;99.90
18426;DHT22;9340;48.756;9.226;2023-01-05T01:10:04;11.30;99.90
18426;DHT22;9340;48.756;9.226;2023-01-05T01:12:31;11.30;99.90
18426;DHT22;9340;48.756;9.226;2023-01-05T01:14:58;11.40;99.90
18426;DHT22;9340;48.756;9.226;2023-01-05T01:17:25;11.40;99.90
18426;DHT22;9340;48.756;9.226;2023-01-05T01:19:52;11.30;99.90
18426;DHT22;9340;48.756;9.226;2023-01-05T01:22:19;11.40;99.90
18426;DHT22;9340;48.756;9.226;2023-01-05T01:24:47;11.40;99.90
18426;DHT22;9340;48.756;9.226;2023-01-05T01:27:15;11.30;99.90
18426;DHT22;9340;48.756;9.226;2023-01-05T01:29:41;11.30;99.90
18426;DHT22;9340;48.756;9.226;2023-01-05T01:32:08;11.40;99.90
18426;DHT22;9340;48.756;9.226;2023-01-05T01:34:35;11.40;99.90
18426;DHT22;9340;48.756;9.226;2023-01-05T01:37:03;11.40;99.90
18426;DHT22;9340;48.756;9.226;2023-01-05T01:39:30;11.40;99.90
18426;DHT22;9340;48.756;9.226;2023-01-05T01:41:59;11.40;99.90
18426;DHT22;9340;48.756;9.226;2023-01-05T01:44:52;11.40;99.90
18426;DHT22;9340;48.756;9.226;2023-01-05T01:47:34;11.40;99.90
18426;DHT22;9340;48.756;9.226;2023-01-05T01:50:06;11.40;99.90
18426;DHT22;9340;48.756;9.226;2023-01-05T01:52:35;11.40;99.90
18426;DHT22;9340;48.756;9.226;2023-01-05T01:55:05;11.40;99.90
18426;DHT22;9340;48.756;9.226;2023-01-05T01:57:34;11.30;99.90
18426;DHT22;9340;48.756;9.226;2023-01-05T02:00:05;11.40;99.90
18426;DHT22;9340;48.756;9.226;2023-01-05T02:02:33;11.40;99.90
18426;DHT22;9340;48.756;9.226;2023-01-05T02:05:02;11.30;99.90
18426;DHT22;9340;48.756;9.226;2023-01-05T02:07:33;11.30;99.90
18426;DHT22;9340;48.756;9.226;2023-01-05T02:10:00;11.30;99.90
18426;DHT22;9340;48.756;9.226;2023-01-05T02:12:37;11.30;99.90
18426;DHT22;9340;48.756;9.226;2023-01-05T02:15:15;11.30;99.90
18426;DHT22;9340;48.756;9.226;2023-01-05T02:18:06;11.30;99.90
18426;DHT22;9340;48.756;9.226;2023-01-05T02:23:41;11.40;99.90
18426;DHT22;9340;48.756;9.226;2023-01-05T02:32:39;11.30;99.90
18426;DHT22;9340;48.756;9.226;2023-01-05T02:35:13;11.30;99.90
18426;DHT22;9340;48.756;9.226;2023-01-05T02:37:58;11.40;99.90
18426;DHT22;9340;48.756;9.226;2023-01-05T02:40:32;11.40;99.90
18426;DHT22;9340;48.756;9.226;2023-01-05T02:43:00;11.40;99.90
18426;DHT22;9340;48.756;9.226;2023-01-05T02:45:27;11.40;99.90
18426;DHT22;9340;48.756;9.226;2023-01-05T02:47:55;11.40;99.90
18426;DHT22;9340;48.756;9.226;2023-01-05T02:50:26;11.30;99.90
18426;DHT22;9340;48.756;9.226;2023-01-05T02:52:58;11.40;99.90
18426;DHT22;9340;48.756;9.226;2023-01-05T02:55:31;11.30;99.90
18426;DHT22;9340;48.756;9.226;2023-01-05T02:58:02;11.30;99.90
18426;DHT22;9340;48.756;9.226;2023-01-05T03:00:34;11.30;99.90
18426;DHT22;9340;48.756;9.226;2023-01-05T03:03:08;11.40;99.90
18426;DHT22;9340;48.756;9.226;2023-01-05T03:05:41;11.40;99.90
18426;DHT22;9340;48.756;9.226;2023-01-05T03:08:11;11.30;99.90
18426;DHT22;9340;48.756;9.226;2023-01-05T03:10:52;11.40;99.90
18426;DHT22;9340;48.756;9.226;2023-01-05T03:13:41;11.40;99.90
18426;DHT22;9340;48.756;9.226;2023-01-05T03:16:10;11.30;99.90
18426;DHT22;9340;48.756;9.226;2023-01-05T03:18:40;11.40;99.90
18426;DHT22;9340;48.756;9.226;2023-01-05T03:21:22;11.40;99.90
18426;DHT22;9340;48.756;9.226;2023-01-05T03:23:49;11.30;99.90
18426;DHT22;9340;48.756;9.226;2023-01-05T03:26:34;11.30;99.90
18426;DHT22;9340;48.756;9.226;2023-01-05T03:29:19;11.40;99.90
18426;DHT22;9340;48.756;9.226;2023-01-05T03:32:08;11.40;99.90
18426;DHT22;9340;48.756;9.226;2023-01-05T03:34:58;11.40;99.90
18426;DHT22;9340;48.756;9.226;2023-01-05T03:37:49;11.40;99.90
18426;DHT22;9340;48.756;9.226;2023-01-05T03:40:19;11.40;99.90
18426;DHT22;9340;48.756;9.226;2023-01-05T03:42:48;11.40;99.90
18426;DHT22;9340;48.756;9.226;2023-01-05T03:45:15;11.40;99.90
18426;DHT22;9340;48.756;9.226;2023-01-05T03:47:43;11.30;99.90
18426;DHT22;9340;48.756;9.226;2023-01-05T03:50:12;11.40;99.90
18426;DHT22;9340;48.756;9.226;2023-01-05T03:52:39;11.40;99.90
18426;DHT22;9340;48.756;9.226;2023-01-05T03:55:06;11.40;99.90
18426;DHT22;9340;48.756;9.226;2023-01-05T03:57:33;11.30;99.90
18426;DHT22;9340;48.756;9.226;2023-01-05T04:00:00;11.30;99.90
18426;DHT22;9340;48.756;9.226;2023-01-05T04:02:28;11.40;99.90
18426;DHT22;9340;48.756;9.226;2023-01-05T04:04:55;11.40;99.90
18426;DHT22;9340;48.756;9.226;2023-01-05T04:07:23;11.40;99.90
18426;DHT22;9340;48.756;9.226;2023-01-05T04:09:50;11.40;99.90
18426;DHT22;9340;48.756;9.226;2023-01-05T04:12:17;11.40;99.90
18426;DHT22;9340;48.756;9.226;2023-01-05T04:14:43;11.40;99.90
18426;DHT22;9340;48.756;9.226;2023-01-05T04:17:11;11.40;99.90
18426;DHT22;9340;48.756;9.226;2023-01-05T04:19:38;11.40;99.90
18426;DHT22;9340;48.756;9.226;2023-01-05T04:22:05;11.40;99.90
18426;DHT22;9340;48.756;9.226;2023-01-05T04:24:34;11.40;99.90
18426;DHT22;9340;48.756;9.226;2023-01-05T04:27:01;11.40;99.90
18426;DHT22;9340;48.756;9.226;2023-01-05T04:29:28;11.40;99.90
18426;DHT22;9340;48.756;9.226;2023-01-05T04:31:55;11.40;99.90
18426;DHT22;9340;48.756;9.226;2023-01-05T04:34:22;11.40;99.90
18426;DHT22;9340;48.756;9.226;2023-01-05T04:36:49;11.50;99.90
18426;DHT22;9340;48.756;9.226;2023-01-05T04:39:16;11.50;99.90
18426;DHT22;9340;48.756;9.226;2023-01-05T04:41:44;11.50;99.90
18426;DHT22;9340;48.756;9.226;2023-01-05T04:44:13;11.60;99.90
18426;DHT22;9340;48.756;9.226;2023-01-05T04:46:39;11.60;99.90
18426;DHT22;9340;48.756;9.226;2023-01-05T04:49:07;11.60;99.90
18426;DHT22;9340;48.756;9.226;2023-01-05T04:51:35;11.60;99.90
18426;DHT22;9340;48.756;9.226;2023-01-05T04:54:02;11.60;99.90
18426;DHT22;9340;48.756;9.226;2023-01-05T04:56:28;11.60;99.90
18426;DHT22;9340;48.756;9.226;2023-01-05T04:58:56;11.70;99.90
18426;DHT22;9340;48.756;9.226;2023-01-05T05:01:23;11.70;99.90
18426;DHT22;9340;48.756;9.226;2023-01-05T05:03:50;11.70;99.90
18426;DHT22;9340;48.756;9.226;2023-01-05T05:06:17;11.70;99.90
18426;DHT22;9340;48.756;9.226;2023-01-05T05:08:45;11.70;99.90
18426;DHT22;9340;48.756;9.226;2023-01-05T05:11:12;11.70;99.90
18426;DHT22;9340;48.756;9.226;2023-01-05T05:13:39;11.70;99.90
18426;DHT22;9340;48.756;9.226;2023-01-05T05:16:07;11.70;99.90
18426;DHT22;9340;48.756;9.226;2023-01-05T05:18:35;11.80;99.90
18426;DHT22;9340;48.756;9.226;2023-01-05T05:21:02;11.80;99.90
18426;DHT22;9340;48.756;9.226;2023-01-05T05:23:30;11.80;99.90
18426;DHT22;9340;48.756;9.226;2023-01-05T05:25:57;11.80;99.90
18426;DHT22;9340;48.756;9.226;2023-01-05T05:28:24;11.80;99.90
18426;DHT22;9340;48.756;9.226;2023-01-05T05:30:53;11.80;99.90
18426;DHT22;9340;48.756;9.226;2023-01-05T05:33:22;11.80;99.90
18426;DHT22;9340;48.756;9.226;2023-01-05T05:35:50;11.80;99.90
18426;DHT22;9340;48.756;9.226;2023-01-05T05:38:17;11.80;99.90
18426;DHT22;9340;48.756;9.226;2023-01-05T05:40:46;11.90;99.90
18426;DHT22;9340;48.756;9.226;2023-01-05T05:43:14;11.80;99.90
18426;DHT22;9340;48.756;9.226;2023-01-05T05:45:41;11.80;99.90
18426;DHT22;9340;48.756;9.226;2023-01-05T05:48:09;11.70;99.90
18426;DHT22;9340;48.756;9.226;2023-01-05T05:50:38;11.70;99.90
18426;DHT22;9340;48.756;9.226;2023-01-05T05:53:05;11.60;99.90
18426;DHT22;9340;48.756;9.226;2023-01-05T05:55:33;11.50;99.90
18426;DHT22;9340;48.756;9.226;2023-01-05T05:58:00;11.40;99.90
18426;DHT22;9340;48.756;9.226;2023-01-05T06:00:27;11.40;99.90
18426;DHT22;9340;48.756;9.226;2023-01-05T06:02:53;11.40;99.90
18426;DHT22;9340;48.756;9.226;2023-01-05T06:05:20;11.40;99.90
18426;DHT22;9340;48.756;9.226;2023-01-05T06:07:48;11.40;99.90
18426;DHT22;9340;48.756;9.226;2023-01-05T06:10:15;11.40;99.90
18426;DHT22;9340;48.756;9.226;2023-01-05T06:12:42;11.30;99.90
18426;DHT22;9340;48.756;9.226;2023-01-05T06:15:10;11.30;99.90
18426;DHT22;9340;48.756;9.226;2023-01-05T06:17:37;11.30;99.90
18426;DHT22;9340;48.756;9.226;2023-01-05T06:20:05;11.20;99.90
18426;DHT22;9340;48.756;9.226;2023-01-05T06:22:33;11.20;99.90
18426;DHT22;9340;48.756;9.226;2023-01-05T06:25:01;11.20;99.90
18426;DHT22;9340;48.756;9.226;2023-01-05T06:27:28;11.10;99.90
18426;DHT22;9340;48.756;9.226;2023-01-05T06:29:55;11.10;99.90
18426;DHT22;9340;48.756;9.226;2023-01-05T06:32:22;11.10;99.90
18426;DHT22;9340;48.756;9.226;2023-01-05T06:34:49;11.10;99.90
18426;DHT22;9340;48.756;9.226;2023-01-05T06:37:17;11.00;99.90
18426;DHT22;9340;48.756;9.226;2023-01-05T06:39:44;11.00;99.90
18426;DHT22;9340;48.756;9.226;2023-01-05T06:42:13;11.00;99.90
18426;DHT22;9340;48.756;9.226;2023-01-05T06:44:40;11.00;99.90
18426;DHT22;9340;48.756;9.226;2023-01-05T06:47:08;10.90;99.90
18426;DHT22;9340;48.756;9.226;2023-01-05T06:49:35;10.90;99.90
18426;DHT22;9340;48.756;9.226;2023-01-05T06:52:02;10.80;99.90
18426;DHT22;9340;48.756;9.226;2023-01-05T06:54:30;10.80;99.90
18426;DHT22;9340;48.756;9.226;2023-01-05T06:56:57;10.80;99.90
18426;DHT22;9340;48.756;9.226;2023-01-05T06:59:25;10.90;99.90
18426;DHT22;9340;48.756;9.226;2023-01-05T07:01:52;10.90;99.90
18426;DHT22;9340;48.756;9.226;2023-01-05T07:04:19;10.90;99.90
18426;DHT22;9340;48.756;9.226;2023-01-05T07:06:46;10.90;99.90
18426;DHT22;9340;48.756;9.226;2023-01-05T07:09:13;10.90;99.90
18426;DHT22;9340;48.756;9.226;2023-01-05T07:11:40;10.80;99.90
18426;DHT22;9340;48.756;9.226;2023-01-05T07:14:07;10.80;99.90
18426;DHT22;9340;48.756;9.226;2023-01-05T07:16:35;10.80;99.90
18426;DHT22;9340;48.756;9.226;2023-01-05T07:19:02;10.80;99.90
18426;DHT22;9340;48.756;9.226;2023-01-05T07:21:28;10.80;99.90
18426;DHT22;9340;48.756;9.226;2023-01-05T07:23:55;10.90;99.90
18426;DHT22;9340;48.756;9.226;2023-01-05T07:26:22;10.90;99.90
18426;DHT22;9340;48.756;9.226;2023-01-05T07:28:48;10.80;99.90
18426;DHT22;9340;48.756;9.226;2023-01-05T07:31:15;10.80;99.90
18426;DHT22;9340;48.756;9.226;2023-01-05T07:33:43;10.80;99.90
18426;DHT22;9340;48.756;9.226;2023-01-05T07:36:10;10.80;99.90
18426;DHT22;9340;48.756;9.226;2023-01-05T07:38:37;10.70;99.90
18426;DHT22;9340;48.756;9.226;2023-01-05T07:41:04;10.70;99.90
18426;DHT22;9340;48.756;9.226;2023-01-05T07:43:31;10.70;99.90
18426;DHT22;9340;48.756;9.226;2023-01-05T07:45:59;10.70;99.90
18426;DHT22;9340;48.756;9.226;2023-01-05T07:48:26;10.60;99.90
18426;DHT22;9340;48.756;9.226;2023-01-05T07:50:59;10.70;99.90
18426;DHT22;9340;48.756;9.226;2023-01-05T07:53:27;10.70;99.90
18426;DHT22;9340;48.756;9.226;2023-01-05T07:55:55;10.70;99.90
18426;DHT22;9340;48.756;9.226;2023-01-05T07:58:22;10.70;99.90
18426;DHT22;9340;48.756;9.226;2023-01-05T08:00:49;10.70;99.90
18426;DHT22;9340;48.756;9.226;2023-01-05T08:03:16;10.70;99.90
18426;DHT22;9340;48.756;9.226;2023-01-05T08:05:43;10.70;99.90
18426;DHT22;9340;48.756;9.226;2023-01-05T08:08:12;10.70;99.90
18426;DHT22;9340;48.756;9.226;2023-01-05T08:10:39;10.70;99.90
18426;DHT22;9340;48.756;9.226;2023-01-05T08:13:07;10.80;99.90
18426;DHT22;9340;48.756;9.226;2023-01-05T08:15:53;10.80;99.90
18426;DHT22;9340;48.756;9.226;2023-01-05T08:18:21;10.90;99.90
18426;DHT22;9340;48.756;9.226;2023-01-05T08:20:52;10.90;99.90
18426;DHT22;9340;48.756;9.226;2023-01-05T08:23:21;10.90;99.90
18426;DHT22;9340;48.756;9.226;2023-01-05T08:25:48;10.90;99.90
18426;DHT22;9340;48.756;9.226;2023-01-05T08:28:15;11.00;99.90
18426;DHT22;9340;48.756;9.226;2023-01-05T08:30:41;11.00;99.90
18426;DHT22;9340;48.756;9.226;2023-01-05T08:33:08;11.00;99.90
18426;DHT22;9340;48.756;9.226;2023-01-05T08:35:38;11.10;99.90
18426;DHT22;9340;48.756;9.226;2023-01-05T08:38:05;11.00;99.90
18426;DHT22;9340;48.756;9.226;2023-01-05T08:40:33;11.10;99.90
18426;DHT22;9340;48.756;9.226;2023-01-05T08:43:00;11.10;99.90
18426;DHT22;9340;48.756;9.226;2023-01-05T08:45:27;11.20;99.90
18426;DHT22;9340;48.756;9.226;2023-01-05T08:47:54;11.20;99.90
18426;DHT22;9340;48.756;9.226;2023-01-05T08:50:21;11.30;99.90
18426;DHT22;9340;48.756;9.226;2023-01-05T08:52:47;11.30;99.90
18426;DHT22;9340;48.756;9.226;2023-01-05T08:55:14;11.40;99.90
18426;DHT22;9340;48.756;9.226;2023-01-05T08:57:42;11.50;99.90
18426;DHT22;9340;48.756;9.226;2023-01-05T09:00:10;11.50;99.90
18426;DHT22;9340;48.756;9.226;2023-01-05T09:02:37;11.50;99.90
18426;DHT22;9340;48.756;9.226;2023-01-05T09:05:05;11.50;99.90
18426;DHT22;9340;48.756;9.226;2023-01-05T09:07:32;11.40;99.90
18426;DHT22;9340;48.756;9.226;2023-01-05T09:09:58;11.50;99.90
18426;DHT22;9340;48.756;9.226;2023-01-05T09:12:25;11.40;99.90
18426;DHT22;9340;48.756;9.226;2023-01-05T09:14:53;11.40;99.90
18426;DHT22;9340;48.756;9.226;2023-01-05T09:17:20;11.40;99.90
18426;DHT22;9340;48.756;9.226;2023-01-05T09:19:47;11.40;99.90
18426;DHT22;9340;48.756;9.226;2023-01-05T09:22:14;11.40;99.90
18426;DHT22;9340;48.756;9.226;2023-01-05T09:24:40;11.50;99.90
18426;DHT22;9340;48.756;9.226;2023-01-05T09:27:07;11.50;99.90
18426;DHT22;9340;48.756;9.226;2023-01-05T09:29:34;11.40;99.90
18426;DHT22;9340;48.756;9.226;2023-01-05T09:32:02;11.50;99.90
18426;DHT22;9340;48.756;9.226;2023-01-05T09:34:30;11.60;99.90
18426;DHT22;9340;48.756;9.226;2023-01-05T09:36:57;11.60;99.90
18426;DHT22;9340;48.756;9.226;2023-01-05T09:39:24;11.70;99.90
18426;DHT22;9340;48.756;9.226;2023-01-05T09:41:53;11.70;99.90
18426;DHT22;9340;48.756;9.226;2023-01-05T09:44:28;11.70;99.90
18426;DHT22;9340;48.756;9.226;2023-01-05T09:46:59;11.70;99.90
18426;DHT22;9340;48.756;9.226;2023-01-05T09:49:29;11.80;99.90
18426;DHT22;9340;48.756;9.226;2023-01-05T09:51:59;11.80;99.90
18426;DHT22;9340;48.756;9.226;2023-01-05T09:54:29;11.90;99.90
18426;DHT22;9340;48.756;9.226;2023-01-05T09:56:58;12.00;99.90
18426;DHT22;9340;48.756;9.226;2023-01-05T09:59:27;12.00;99.90
18426;DHT22;9340;48.756;9.226;2023-01-05T10:01:58;12.00;99.90
18426;DHT22;9340;48.756;9.226;2023-01-05T10:04:29;12.10;99.90
18426;DHT22;9340;48.756;9.226;2023-01-05T10:07:00;12.10;99.90
18426;DHT22;9340;48.756;9.226;2023-01-05T10:09:30;12.20;99.90
18426;DHT22;9340;48.756;9.226;2023-01-05T10:12:01;12.20;99.90
18426;DHT22;9340;48.756;9.226;2023-01-05T10:14:51;12.20;99.90
18426;DHT22;9340;48.756;9.226;2023-01-05T10:17:21;12.30;99.90
18426;DHT22;9340;48.756;9.226;2023-01-05T10:19:49;12.40;99.90
18426;DHT22;9340;48.756;9.226;2023-01-05T10:22:30;12.40;99.90
18426;DHT22;9340;48.756;9.226;2023-01-05T10:25:04;12.40;99.90
18426;DHT22;9340;48.756;9.226;2023-01-05T10:27:36;12.40;99.90
18426;DHT22;9340;48.756;9.226;2023-01-05T10:30:12;12.40;99.90
18426;DHT22;9340;48.756;9.226;2023-01-05T10:32:48;12.50;99.90
18426;DHT22;9340;48.756;9.226;2023-01-05T10:35:33;12.60;99.90
18426;DHT22;9340;48.756;9.226;2023-01-05T10:38:11;12.60;99.90
18426;DHT22;9340;48.756;9.226;2023-01-05T10:40:50;12.60;99.90
18426;DHT22;9340;48.756;9.226;2023-01-05T10:43:40;12.60;99.90
18426;DHT22;9340;48.756;9.226;2023-01-05T10:46:11;12.60;99.90
18426;DHT22;9340;48.756;9.226;2023-01-05T10:48:39;12.70;99.90
18426;DHT22;9340;48.756;9.226;2023-01-05T10:51:08;12.70;99.90
18426;DHT22;9340;48.756;9.226;2023-01-05T10:53:38;12.90;99.90
18426;DHT22;9340;48.756;9.226;2023-01-05T10:56:12;12.90;99.90
18426;DHT22;9340;48.756;9.226;2023-01-05T10:58:40;12.90;99.90
18426;DHT22;9340;48.756;9.226;2023-01-05T11:01:18;12.80;99.90
18426;DHT22;9340;48.756;9.226;2023-01-05T11:03:48;12.80;99.90
18426;DHT22;9340;48.756;9.226;2023-01-05T11:06:20;12.80;99.90
18426;DHT22;9340;48.756;9.226;2023-01-05T11:08:48;13.00;99.90
18426;DHT22;9340;48.756;9.226;2023-01-05T11:11:21;13.00;99.90
18426;DHT22;9340;48.756;9.226;2023-01-05T11:13:49;12.90;99.90
18426;DHT22;9340;48.756;9.226;2023-01-05T11:16:19;12.90;99.90
18426;DHT22;9340;48.756;9.226;2023-01-05T11:18:49;12.80;99.90
18426;DHT22;9340;48.756;9.226;2023-01-05T11:21:19;12.90;99.90
18426;DHT22;9340;48.756;9.226;2023-01-05T11:23:48;12.90;99.90
18426;DHT22;9340;48.756;9.226;2023-01-05T11:26:27;13.00;99.90
18426;DHT22;9340;48.756;9.226;2023-01-05T11:29:12;13.00;99.90
18426;DHT22;9340;48.756;9.226;2023-01-05T11:31:45;13.00;99.90
18426;DHT22;9340;48.756;9.226;2023-01-05T11:34:16;13.10;99.90
18426;DHT22;9340;48.756;9.226;2023-01-05T11:36:52;13.00;99.90
18426;DHT22;9340;48.756;9.226;2023-01-05T11:39:25;13.10;99.90
18426;DHT22;9340;48.756;9.226;2023-01-05T11:42:05;13.00;99.90
18426;DHT22;9340;48.756;9.226;2023-01-05T11:44:33;13.10;99.90
18426;DHT22;9340;48.756;9.226;2023-01-05T11:47:01;13.10;99.90
18426;DHT22;9340;48.756;9.226;2023-01-05T11:49:29;13.00;99.90
18426;DHT22;9340;48.756;9.226;2023-01-05T11:51:57;13.10;99.90
18426;DHT22;9340;48.756;9.226;2023-01-05T11:54:32;13.10;99.90
18426;DHT22;9340;48.756;9.226;2023-01-05T11:57:13;13.20;99.90
18426;DHT22;9340;48.756;9.226;2023-01-05T11:59:40;13.20;99.90
18426;DHT22;9340;48.756;9.226;2023-01-05T12:02:20;13.20;99.90
18426;DHT22;9340;48.756;9.226;2023-01-05T12:05:02;13.20;99.90
18426;DHT22;9340;48.756;9.226;2023-01-05T12:07:39;13.20;99.90
18426;DHT22;9340;48.756;9.226;2023-01-05T12:10:26;13.20;99.90
18426;DHT22;9340;48.756;9.226;2023-01-05T12:13:02;13.40;99.90
18426;DHT22;9340;48.756;9.226;2023-01-05T12:15:50;13.50;99.90
18426;DHT22;9340;48.756;9.226;2023-01-05T12:18:28;13.50;99.90
18426;DHT22;9340;48.756;9.226;2023-01-05T12:21:03;13.60;99.90
18426;DHT22;9340;48.756;9.226;2023-01-05T12:26:27;13.50;99.90
18426;DHT22;9340;48.756;9.226;2023-01-05T12:29:38;13.50;99.90
18426;DHT22;9340;48.756;9.226;2023-01-05T12:32:16;13.50;99.90
18426;DHT22;9340;48.756;9.226;2023-01-05T12:35:25;13.50;99.90
18426;DHT22;9340;48.756;9.226;2023-01-05T12:38:11;13.50;99.90
18426;DHT22;9340;48.756;9.226;2023-01-05T12:40:52;13.40;99.90
18426;DHT22;9340;48.756;9.226;2023-01-05T12:43:31;13.20;99.90
18426;DHT22;9340;48.756;9.226;2023-01-05T12:46:12;13.20;99.90
18426;DHT22;9340;48.756;9.226;2023-01-05T12:48:46;13.20;99.90
18426;DHT22;9340;48.756;9.226;2023-01-05T12:51:18;13.30;99.90
18426;DHT22;9340;48.756;9.226;2023-01-05T12:53:52;13.20;99.90
18426;DHT22;9340;48.756;9.226;2023-01-05T12:56:24;13.10;99.90
18426;DHT22;9340;48.756;9.226;2023-01-05T12:59:09;13.00;99.90
18426;DHT22;9340;48.756;9.226;2023-01-05T13:01:43;13.00;99.90
18426;DHT22;9340;48.756;9.226;2023-01-05T13:04:28;13.10;99.90
18426;DHT22;9340;48.756;9.226;2023-01-05T13:07:00;13.10;99.90
18426;DHT22;9340;48.756;9.226;2023-01-05T13:09:33;13.00;99.90
18426;DHT22;9340;48.756;9.226;2023-01-05T13:12:05;13.00;99.90
18426;DHT22;9340;48.756;9.226;2023-01-05T13:14:34;13.20;99.90
18426;DHT22;9340;48.756;9.226;2023-01-05T13:17:05;13.40;99.90
18426;DHT22;9340;48.756;9.226;2023-01-05T13:19:35;13.40;99.90
18426;DHT22;9340;48.756;9.226;2023-01-05T13:22:09;13.40;99.90
18426;DHT22;9340;48.756;9.226;2023-01-05T13:24:40;13.40;99.90
18426;DHT22;9340;48.756;9.226;2023-01-05T13:27:11;13.40;99.90
18426;DHT22;9340;48.756;9.226;2023-01-05T13:29:42;13.30;99.90
18426;DHT22;9340;48.756;9.226;2023-01-05T13:32:19;13.30;99.90
18426;DHT22;9340;48.756;9.226;2023-01-05T13:38:03;13.30;99.90
18426;DHT22;9340;48.756;9.226;2023-01-05T13:40:50;13.40;99.90
18426;DHT22;9340;48.756;9.226;2023-01-05T13:43:45;13.30;99.90
18426;DHT22;9340;48.756;9.226;2023-01-05T13:46:33;13.40;99.90
18426;DHT22;9340;48.756;9.226;2023-01-05T13:49:22;13.30;99.90
18426;DHT22;9340;48.756;9.226;2023-01-05T13:51:54;13.30;99.90
18426;DHT22;9340;48.756;9.226;2023-01-05T13:54:33;13.20;99.90
18426;DHT22;9340;48.756;9.226;2023-01-05T13:57:05;13.10;99.90
18426;DHT22;9340;48.756;9.226;2023-01-05T13:59:36;13.00;99.90
18426;DHT22;9340;48.756;9.226;2023-01-05T14:02:04;12.90;99.90
18426;DHT22;9340;48.756;9.226;2023-01-05T14:04:45;12.90;99.90
18426;DHT22;9340;48.756;9.226;2023-01-05T14:07:19;12.90;99.90
18426;DHT22;9340;48.756;9.226;2023-01-05T14:09:48;12.80;99.90
18426;DHT22;9340;48.756;9.226;2023-01-05T14:12:47;12.70;99.90
18426;DHT22;9340;48.756;9.226;2023-01-05T14:15:35;12.70;99.90
18426;DHT22;9340;48.756;9.226;2023-01-05T14:18:03;12.60;99.90
18426;DHT22;9340;48.756;9.226;2023-01-05T14:20:33;12.60;99.90
18426;DHT22;9340;48.756;9.226;2023-01-05T14:23:02;12.60;99.90
18426;DHT22;9340;48.756;9.226;2023-01-05T14:25:57;12.50;99.90
18426;DHT22;9340;48.756;9.226;2023-01-05T14:28:51;12.50;99.90
18426;DHT22;9340;48.756;9.226;2023-01-05T14:31:43;12.50;99.90
18426;DHT22;9340;48.756;9.226;2023-01-05T14:34:14;12.50;99.90
18426;DHT22;9340;48.756;9.226;2023-01-05T14:36:43;12.50;99.90
18426;DHT22;9340;48.756;9.226;2023-01-05T14:39:27;12.50;99.90
18426;DHT22;9340;48.756;9.226;2023-01-05T14:42:03;12.50;99.90
18426;DHT22;9340;48.756;9.226;2023-01-05T14:44:34;12.50;99.90
18426;DHT22;9340;48.756;9.226;2023-01-05T14:47:05;12.40;99.90
18426;DHT22;9340;48.756;9.226;2023-01-05T14:49:34;12.40;99.90
18426;DHT22;9340;48.756;9.226;2023-01-05T14:52:05;12.30;99.90
18426;DHT22;9340;48.756;9.226;2023-01-05T14:57:37;12.40;99.90
18426;DHT22;9340;48.756;9.226;2023-01-05T15:00:11;12.30;99.90
18426;DHT22;9340;48.756;9.226;2023-01-05T15:02:49;12.30;99.90
18426;DHT22;9340;48.756;9.226;2023-01-05T15:05:18;12.30;99.90
18426;DHT22;9340;48.756;9.226;2023-01-05T15:07:51;12.20;99.90
18426;DHT22;9340;48.756;9.226;2023-01-05T15:10:39;12.10;99.90
18426;DHT22;9340;48.756;9.226;2023-01-05T15:13:42;12.10;99.90
18426;DHT22;9340;48.756;9.226;2023-01-05T15:16:44;12.10;99.90
18426;DHT22;9340;48.756;9.226;2023-01-05T15:19:29;12.10;99.90
18426;DHT22;9340;48.756;9.226;2023-01-05T15:22:08;12.10;99.90
18426;DHT22;9340;48.756;9.226;2023-01-05T15:25:05;12.10;99.90
18426;DHT22;9340;48.756;9.226;2023-01-05T15:27:55;12.10;99.90
18426;DHT22;9340;48.756;9.226;2023-01-05T15:30:43;12.00;99.90
18426;DHT22;9340;48.756;9.226;2023-01-05T15:33:15;12.00;99.90
18426;DHT22;9340;48.756;9.226;2023-01-05T15:35:50;11.90;99.90
18426;DHT22;9340;48.756;9.226;2023-01-05T15:38:20;11.90;99.90
18426;DHT22;9340;48.756;9.226;2023-01-05T15:40:47;11.90;99.90
18426;DHT22;9340;48.756;9.226;2023-01-05T15:43:16;11.90;99.90
18426;DHT22;9340;48.756;9.226;2023-01-05T15:45:48;11.90;99.90
18426;DHT22;9340;48.756;9.226;2023-01-05T15:48:26;11.90;99.90
18426;DHT22;9340;48.756;9.226;2023-01-05T15:50:56;11.90;99.90
18426;DHT22;9340;48.756;9.226;2023-01-05T15:53:27;11.90;99.90
18426;DHT22;9340;48.756;9.226;2023-01-05T15:55:55;11.80;99.90
18426;DHT22;9340;48.756;9.226;2023-01-05T15:58:24;11.80;99.90
18426;DHT22;9340;48.756;9.226;2023-01-05T16:01:03;11.80;99.90
18426;DHT22;9340;48.756;9.226;2023-01-05T16:03:32;11.70;99.90
18426;DHT22;9340;48.756;9.226;2023-01-05T16:06:02;11.70;99.90
18426;DHT22;9340;48.756;9.226;2023-01-05T16:08:31;11.70;99.90
18426;DHT22;9340;48.756;9.226;2023-01-05T16:11:00;11.60;99.90
18426;DHT22;9340;48.756;9.226;2023-01-05T16:13:30;11.50;99.90
18426;DHT22;9340;48.756;9.226;2023-01-05T16:15:59;11.50;99.90
18426;DHT22;9340;48.756;9.226;2023-01-05T16:18:31;11.50;99.90
18426;DHT22;9340;48.756;9.226;2023-01-05T16:21:03;11.50;99.90
18426;DHT22;9340;48.756;9.226;2023-01-05T16:23:36;11.40;99.90
18426;DHT22;9340;48.756;9.226;2023-01-05T16:26:05;11.40;99.90
18426;DHT22;9340;48.756;9.226;2023-01-05T16:28:39;11.30;99.90
18426;DHT22;9340;48.756;9.226;2023-01-05T16:31:11;11.30;99.90
18426;DHT22;9340;48.756;9.226;2023-01-05T16:33:39;11.20;99.90